createdAt,value
2022-08-31T00:04:38.609Z,12.80
2022-08-31T00:09:42.158Z,12.80
2022-08-31T00:14:45.074Z,12.70
2022-08-31T00:19:47.984Z,12.70
2022-08-31T00:24:50.961Z,12.60
2022-08-31T00:29:54.410Z,12.60
2022-08-31T00:34:58.821Z,12.60
2022-08-31T00:40:01.865Z,12.50
2022-08-31T00:45:06.213Z,12.50
2022-08-31T00:50:13.334Z,12.50
2022-08-31T00:55:24.831Z,12.50
2022-08-31T01:00:29.729Z,12.40
2022-08-31T01:05:39.220Z,12.40
2022-08-31T01:10:52.262Z,12.40
2022-08-31T01:16:18.273Z,12.30
2022-08-31T01:21:47.715Z,12.30
2022-08-31T01:27:07.977Z,12.20
2022-08-31T01:32:21.589Z,12.20
2022-08-31T01:37:34.340Z,12.20
2022-08-31T01:42:42.940Z,12.10
2022-08-31T01:47:46.160Z,12.10
2022-08-31T01:52:49.091Z,12.10
2022-08-31T01:57:52.064Z,12.10
2022-08-31T02:03:16.070Z,12.00
2022-08-31T02:08:20.184Z,12.00
2022-08-31T02:13:23.237Z,12.00
2022-08-31T02:18:27.325Z,11.90
2022-08-31T02:23:30.394Z,11.90
2022-08-31T02:28:33.374Z,11.90
2022-08-31T02:33:36.961Z,11.90
2022-08-31T02:38:40.662Z,11.80
2022-08-31T02:43:45.544Z,11.80
2022-08-31T02:48:48.604Z,11.80
2022-08-31T02:53:54.628Z,11.80
2022-08-31T02:58:57.885Z,11.70
2022-08-31T03:04:08.454Z,11.70
2022-08-31T03:09:12.380Z,11.80
2022-08-31T03:14:16.141Z,11.80
2022-08-31T03:19:19.235Z,11.80
2022-08-31T03:24:27.216Z,11.70
2022-08-31T03:29:31.486Z,11.80
2022-08-31T03:34:57.160Z,11.70
2022-08-31T03:40:00.604Z,11.70
2022-08-31T03:45:04.058Z,11.70
2022-08-31T03:50:11.160Z,11.70
2022-08-31T03:55:27.174Z,11.60
2022-08-31T04:00:31.440Z,11.60
2022-08-31T04:05:46.754Z,11.60
2022-08-31T04:11:04.831Z,11.60
2022-08-31T04:16:36.016Z,11.60
2022-08-31T04:22:15.587Z,11.60
2022-08-31T04:27:41.490Z,11.60
2022-08-31T04:32:44.722Z,11.60
2022-08-31T04:37:48.225Z,11.60
2022-08-31T04:42:51.862Z,11.60
2022-08-31T04:47:58.237Z,11.60
2022-08-31T04:53:03.693Z,11.60
2022-08-31T04:58:07.814Z,11.60
2022-08-31T05:03:21.105Z,11.70
2022-08-31T05:08:31.207Z,11.70
2022-08-31T05:13:34.814Z,11.80
2022-08-31T05:18:43.466Z,12.00
2022-08-31T05:23:48.833Z,12.10
2022-08-31T05:28:53.144Z,12.20
2022-08-31T05:33:57.068Z,12.30
2022-08-31T05:39:13.002Z,12.40
2022-08-31T05:44:17.429Z,12.50
2022-08-31T05:49:20.491Z,12.60
2022-08-31T05:54:23.420Z,12.80
2022-08-31T05:59:26.387Z,12.90
2022-08-31T06:04:29.927Z,13.00
2022-08-31T06:09:33.134Z,13.20
2022-08-31T06:14:38.881Z,13.30
2022-08-31T06:19:42.242Z,13.40
2022-08-31T06:24:45.363Z,13.50
2022-08-31T06:29:49.546Z,13.60
2022-08-31T06:34:52.524Z,13.70
2022-08-31T06:40:15.557Z,13.80
2022-08-31T06:45:49.113Z,13.90
2022-08-31T06:51:43.178Z,14.10
2022-08-31T06:56:56.874Z,14.20
2022-08-31T07:02:53.063Z,14.40
2022-08-31T07:08:03.402Z,14.50
2022-08-31T07:13:07.095Z,14.60
2022-08-31T07:18:11.321Z,14.70
2022-08-31T07:23:14.711Z,14.90
2022-08-31T07:28:29.815Z,15.00
2022-08-31T07:33:39.374Z,15.10
2022-08-31T07:39:02.077Z,15.20
2022-08-31T07:44:06.581Z,15.30
2022-08-31T07:49:14.128Z,15.50
2022-08-31T07:54:28.405Z,15.60
2022-08-31T08:00:01.457Z,15.70
2022-08-31T08:05:07.494Z,15.80
2022-08-31T08:10:34.114Z,15.90
2022-08-31T08:16:04.106Z,16.10
2022-08-31T08:21:39.071Z,16.20
2022-08-31T08:27:02.413Z,16.30
2022-08-31T08:32:53.506Z,16.50
2022-08-31T08:38:01.338Z,16.70
2022-08-31T08:43:08.914Z,17.10
2022-08-31T08:48:15.456Z,17.30
2022-08-31T08:53:21.624Z,17.50
2022-08-31T08:58:36.202Z,17.80
2022-08-31T09:03:59.797Z,18.00
2022-08-31T09:09:32.873Z,18.30
2022-08-31T09:15:03.855Z,18.50
2022-08-31T09:20:08.616Z,18.70
2022-08-31T09:25:11.518Z,18.90
2022-08-31T09:31:00.277Z,19.00
2022-08-31T09:36:32.681Z,19.10
2022-08-31T09:41:50.218Z,19.20
2022-08-31T09:47:10.902Z,19.50
2022-08-31T09:52:48.609Z,19.70
2022-08-31T09:58:01.519Z,19.70
2022-08-31T10:03:27.198Z,19.60
2022-08-31T10:08:42.542Z,19.30
2022-08-31T10:13:58.921Z,19.60
2022-08-31T10:19:11.292Z,19.30
2022-08-31T10:24:34.812Z,19.40
2022-08-31T10:30:07.702Z,19.60
2022-08-31T10:35:19.598Z,19.50
2022-08-31T10:40:32.347Z,19.80
2022-08-31T10:45:40.483Z,19.70
2022-08-31T10:51:20.216Z,19.60
2022-08-31T10:57:16.763Z,19.80
2022-08-31T11:03:04.420Z,19.70
2022-08-31T11:08:35.994Z,19.80
2022-08-31T11:13:54.161Z,19.90
2022-08-31T11:19:12.287Z,20.00
2022-08-31T11:24:27.717Z,20.00
2022-08-31T11:29:41.714Z,20.00
2022-08-31T11:34:56.800Z,20.00
2022-08-31T11:39:59.863Z,20.00
2022-08-31T11:45:06.707Z,20.10
2022-08-31T11:51:14.309Z,20.10
2022-08-31T11:56:48.524Z,20.10
2022-08-31T12:02:08.406Z,20.20
2022-08-31T12:07:39.575Z,20.20
2022-08-31T12:13:08.300Z,20.10
2022-08-31T12:18:32.371Z,20.20
2022-08-31T12:23:43.493Z,20.30
2022-08-31T12:29:09.846Z,20.40
2022-08-31T12:34:24.672Z,20.30
2022-08-31T12:39:30.571Z,20.30
2022-08-31T12:44:49.991Z,20.20
2022-08-31T12:50:08.484Z,20.20
2022-08-31T12:55:12.862Z,20.30
2022-08-31T13:00:28.975Z,20.20
2022-08-31T13:05:41.025Z,20.40
2022-08-31T13:10:52.729Z,20.50
2022-08-31T13:16:21.940Z,20.60
2022-08-31T13:21:35.328Z,20.70
2022-08-31T13:26:49.903Z,20.70
2022-08-31T13:32:02.871Z,20.80
2022-08-31T13:37:24.457Z,20.90
2022-08-31T13:42:42.024Z,21.00
2022-08-31T13:48:02.460Z,20.90
2022-08-31T13:58:32.589Z,21.10
2022-08-31T14:04:02.316Z,21.10
2022-08-31T14:09:18.141Z,21.20
2022-08-31T14:14:26.924Z,21.30
2022-08-31T14:19:40.936Z,21.40
2022-08-31T14:24:45.391Z,21.30
2022-08-31T14:29:48.599Z,21.20
2022-08-31T14:34:51.804Z,21.30
2022-08-31T14:39:57.881Z,21.10
2022-08-31T14:45:05.493Z,21.20
2022-08-31T14:50:09.447Z,21.10
2022-08-31T14:55:14.454Z,21.10
2022-08-31T15:00:22.136Z,21.10
2022-08-31T15:05:26.204Z,20.90
2022-08-31T15:10:29.176Z,20.80
2022-08-31T15:15:36.254Z,20.80
2022-08-31T15:20:40.133Z,20.70
2022-08-31T15:25:44.715Z,20.70
2022-08-31T15:31:18.592Z,20.60
2022-08-31T15:36:34.047Z,20.50
2022-08-31T15:41:55.830Z,20.40
2022-08-31T15:47:29.341Z,20.40
2022-08-31T15:52:39.759Z,20.20
2022-08-31T15:57:44.457Z,20.20
2022-08-31T16:03:06.597Z,20.10
2022-08-31T16:08:12.167Z,19.80
2022-08-31T16:13:16.540Z,19.90
2022-08-31T16:18:23.379Z,19.80
2022-08-31T16:23:26.596Z,19.70
2022-08-31T16:28:29.606Z,19.60
2022-08-31T16:33:32.694Z,19.60
2022-08-31T16:38:35.785Z,19.30
2022-08-31T16:43:40.316Z,19.30
2022-08-31T16:49:02.408Z,19.10
2022-08-31T16:54:09.680Z,19.10
2022-08-31T16:59:13.730Z,19.10
2022-08-31T17:04:41.191Z,19.00
2022-08-31T17:09:43.738Z,18.90
2022-08-31T17:14:51.579Z,18.80
2022-08-31T17:19:58.971Z,18.70
2022-08-31T17:25:04.867Z,18.60
2022-08-31T17:30:08.863Z,18.50
2022-08-31T17:35:12.049Z,18.50
2022-08-31T17:40:17.014Z,18.40
2022-08-31T17:45:21.596Z,18.30
2022-08-31T17:50:27.599Z,18.30
2022-08-31T17:55:32.428Z,18.20
2022-08-31T18:00:35.664Z,18.00
2022-08-31T18:05:43.630Z,17.90
2022-08-31T18:10:56.678Z,17.80
2022-08-31T18:16:15.840Z,17.70
2022-08-31T18:21:30.734Z,17.60
2022-08-31T18:26:54.148Z,17.50
2022-08-31T18:32:11.533Z,17.40
2022-08-31T18:37:25.973Z,17.20
2022-08-31T18:42:50.429Z,17.10
2022-08-31T18:48:23.901Z,17.10
2022-08-31T18:53:29.030Z,17.00
2022-08-31T18:58:33.438Z,16.80
2022-08-31T19:03:45.099Z,16.80
2022-08-31T19:08:48.906Z,16.70
2022-08-31T19:13:53.001Z,16.60
2022-08-31T19:18:57.213Z,16.50
2022-08-31T19:24:02.896Z,16.50
2022-08-31T19:29:11.496Z,16.40
2022-08-31T19:34:17.370Z,16.30
2022-08-31T19:39:22.978Z,16.20
2022-08-31T19:44:28.399Z,16.10
2022-08-31T19:49:33.014Z,16.10
2022-08-31T19:54:41.656Z,16.00
2022-08-31T19:59:47.882Z,15.90
2022-08-31T20:04:51.119Z,15.80
2022-08-31T20:09:54.466Z,15.70
2022-08-31T20:14:57.627Z,15.60
2022-08-31T20:20:01.210Z,15.50
2022-08-31T20:25:04.542Z,15.40
2022-08-31T20:30:08.791Z,15.40
2022-08-31T20:35:13.245Z,15.30
2022-08-31T20:40:17.071Z,15.20
2022-08-31T20:45:20.267Z,15.20
2022-08-31T20:50:23.231Z,15.10
2022-08-31T20:55:28.061Z,15.00
2022-08-31T21:00:32.847Z,14.90
2022-08-31T21:05:38.763Z,14.80
2022-08-31T21:10:43.846Z,14.80
2022-08-31T21:15:57.090Z,14.70
2022-08-31T21:21:24.548Z,14.60
2022-08-31T21:26:39.759Z,14.40
2022-08-31T21:32:01.270Z,14.30
2022-08-31T21:37:20.685Z,14.30
2022-08-31T21:42:30.481Z,14.20
2022-08-31T21:47:39.769Z,14.10
2022-08-31T21:52:43.019Z,14.00
2022-08-31T21:57:46.035Z,13.90
2022-08-31T22:02:51.051Z,13.90
2022-08-31T22:07:54.063Z,13.80
2022-08-31T22:12:57.060Z,13.80
2022-08-31T22:18:25.869Z,13.70
2022-08-31T22:23:23.465Z,13.70
2022-08-31T22:28:27.819Z,13.70
2022-08-31T22:33:31.084Z,13.60
2022-08-31T22:38:34.962Z,13.60
2022-08-31T22:43:40.053Z,13.60
2022-08-31T22:48:43.364Z,13.50
2022-08-31T22:53:47.594Z,13.50
2022-08-31T22:58:51.220Z,13.50
2022-08-31T23:03:57.278Z,13.50
2022-08-31T23:09:02.735Z,13.40
2022-08-31T23:14:09.151Z,13.40
2022-08-31T23:19:18.488Z,13.40
2022-08-31T23:24:34.104Z,13.40
2022-08-31T23:29:45.770Z,13.40
2022-08-31T23:34:51.277Z,13.40
2022-08-31T23:39:56.140Z,13.30
2022-08-31T23:44:59.879Z,13.40
2022-08-31T23:50:05.069Z,13.30
2022-08-31T23:55:09.758Z,13.30
